Time;durP1;ratioP1;P1;durP2;ratioP2;P2;SDS_P1;SDS_P2;PMS_P1;PMS_P2;Temp;Humidity;BMP_temperature;BMP_pressure;BME280_temperature;BME280_humidity;BME280_pressure;Samples;Min_cycle;Max_cycle;Signal;HPM_P1;HPM_P2
2022/06/23 00:00:56;;;;;;;0.60;0.60;;;32.50;42.90;;;;;;5040181;28;20552;-55
2022/06/23 00:03:24;;;;;;;3.38;0.70;;;32.50;42.90;;;;;;5039847;28;20517;-55
2022/06/23 00:05:57;;;;;;;1.08;0.90;;;32.50;43.00;;;;;;5036215;28;20421;-55
2022/06/23 00:08:25;;;;;;;0.43;0.43;;;32.50;42.90;;;;;;5036558;28;20100;-57
2022/06/23 00:10:55;;;;;;;2.47;1.00;;;32.50;42.90;;;;;;5036867;28;20126;-55
2022/06/23 00:13:25;;;;;;;0.82;0.80;;;32.50;43.00;;;;;;5036198;28;20045;-55
2022/06/23 00:15:55;;;;;;;1.10;0.70;;;32.50;43.10;;;;;;5032558;28;20124;-55
2022/06/23 00:18:24;;;;;;;0.50;0.50;;;32.50;43.10;;;;;;5036970;28;20137;-56
2022/06/23 00:20:55;;;;;;;1.23;0.70;;;32.50;43.10;;;;;;5037294;28;20045;-53
2022/06/23 00:23:25;;;;;;;0.73;0.73;;;32.50;43.20;;;;;;5040063;28;20041;-55
2022/06/23 00:25:58;;;;;;;1.63;0.70;;;32.40;43.10;;;;;;5032951;28;20041;-51
2022/06/23 00:28:30;;;;;;;1.60;0.68;;;32.40;43.20;;;;;;5052741;28;20044;-54
2022/06/23 00:31:00;;;;;;;3.83;0.60;;;32.40;43.20;;;;;;5036505;28;20093;-54
2022/06/23 00:33:29;;;;;;;1.02;0.70;;;32.40;43.20;;;;;;5042455;28;20033;-52
2022/06/23 00:35:59;;;;;;;1.20;1.10;;;32.40;43.30;;;;;;5036424;28;20053;-53
2022/06/23 00:38:30;;;;;;;2.17;0.52;;;32.40;43.30;;;;;;5038022;28;20468;-55
2022/06/23 00:40:59;;;;;;;2.95;0.68;;;32.40;43.40;;;;;;5031876;28;20049;-53
2022/06/23 00:43:28;;;;;;;2.95;1.17;;;32.40;43.50;;;;;;5038080;28;20437;-52
2022/06/23 00:45:59;;;;;;;1.25;0.90;;;32.40;43.50;;;;;;5036294;28;20064;-51
2022/06/23 00:48:35;;;;;;;0.77;0.77;;;32.40;43.60;;;;;;5045576;28;20051;-51
2022/06/23 00:51:10;;;;;;;3.13;0.88;;;32.40;43.60;;;;;;5040685;28;20044;-54
2022/06/23 00:53:45;;;;;;;6.63;1.55;;;32.40;43.70;;;;;;5039804;28;20449;-55
2022/06/23 00:56:22;;;;;;;4.32;1.40;;;32.40;43.80;;;;;;5038533;28;20556;-55
2022/06/23 00:58:55;;;;;;;1.70;1.25;;;32.40;43.80;;;;;;5035434;28;20143;-53
2022/06/23 01:01:27;;;;;;;0.98;0.75;;;32.40;44.60;;;;;;5041600;28;20497;-50
2022/06/23 01:04:01;;;;;;;0.98;0.50;;;32.40;44.00;;;;;;5039183;28;20134;-51
2022/06/23 01:06:36;;;;;;;2.28;0.90;;;32.40;44.20;;;;;;5034354;28;20056;-54
2022/06/23 01:09:13;;;;;;;1.08;0.75;;;32.40;44.30;;;;;;5043200;28;20041;-56
2022/06/23 01:11:45;;;;;;;0.73;0.73;;;32.40;44.40;;;;;;5039269;28;20588;-53
2022/06/23 01:14:22;;;;;;;3.85;1.65;;;32.40;44.40;;;;;;5040712;28;20223;-57
2022/06/23 01:16:53;;;;;;;0.70;0.50;;;32.40;44.40;;;;;;5036780;28;20068;-54
2022/06/23 01:19:51;;;;;;;4.20;0.80;;;32.40;44.40;;;;;;5045229;28;20094;-54
2022/06/23 01:22:27;;;;;;;0.98;0.82;;;32.50;44.50;;;;;;5041129;28;20041;-50
2022/06/23 01:25:03;;;;;;;1.67;0.98;;;32.40;44.40;;;;;;5042181;28;20055;-54
2022/06/23 01:28:00;;;;;;;1.17;0.63;;;32.50;44.50;;;;;;5037462;28;20119;-53
2022/06/23 01:30:31;;;;;;;0.63;0.40;;;32.50;44.50;;;;;;5042519;28;20049;-54
2022/06/23 01:33:08;;;;;;;1.10;0.50;;;32.40;45.10;;;;;;5045582;28;20045;-53
2022/06/23 01:35:41;;;;;;;3.70;1.83;;;32.40;44.50;;;;;;5037644;28;20174;-53
2022/06/23 01:38:14;;;;;;;2.03;0.90;;;32.40;44.50;;;;;;5038204;28;20053;-53
2022/06/23 01:40:48;;;;;;;1.80;0.90;;;32.40;44.50;;;;;;5039255;28;20044;-54
2022/06/23 01:43:21;;;;;;;2.55;0.70;;;32.40;44.50;;;;;;5043147;28;20422;-54
2022/06/23 01:45:54;;;;;;;1.83;0.98;;;32.40;44.50;;;;;;5033971;28;20697;-52
2022/06/23 01:51:06;;;;;;;1.88;0.60;;;32.40;44.40;;;;;;5041897;28;20103;-55
2022/06/23 01:53:34;;;;;;;2.85;0.90;;;32.40;44.40;;;;;;5037814;28;20037;-56
2022/06/23 01:56:17;;;;;;;1.98;1.02;;;32.40;44.50;;;;;;5036812;28;20527;-54
2022/06/23 01:58:56;;;;;;;1.65;1.55;;;32.40;44.60;;;;;;5036416;28;20662;-57
2022/06/23 02:01:32;;;;;;;0.95;0.38;;;32.40;44.70;;;;;;5041477;28;20148;-59
2022/06/23 02:04:07;;;;;;;3.50;1.20;;;32.40;44.70;;;;;;5034168;28;20841;-58
2022/06/23 02:06:45;;;;;;;1.00;0.90;;;32.40;44.70;;;;;;5031626;28;20528;-56
2022/06/23 02:09:20;;;;;;;3.33;1.33;;;32.40;44.80;;;;;;5041481;28;20041;-55
2022/06/23 02:11:49;;;;;;;1.10;0.90;;;32.40;44.80;;;;;;5035762;28;20042;-56
2022/06/23 02:14:42;;;;;;;0.95;0.95;;;32.40;44.80;;;;;;5037304;28;20124;-57
2022/06/23 02:17:23;;;;;;;2.83;1.73;;;32.40;45.40;;;;;;5037473;28;20045;-54
2022/06/23 02:19:54;;;;;;;2.80;1.10;;;32.30;44.80;;;;;;5038999;28;20561;-55
2022/06/23 02:22:26;;;;;;;4.18;1.85;;;32.30;44.80;;;;;;5038167;28;20048;-55
2022/06/23 02:24:59;;;;;;;4.20;1.60;;;32.30;45.00;;;;;;5039213;28;20124;-57
2022/06/23 02:27:33;;;;;;;1.92;1.38;;;32.20;45.00;;;;;;5036486;28;20037;-56
2022/06/23 02:30:05;;;;;;;1.70;1.38;;;32.20;45.10;;;;;;5037708;28;20145;-53
2022/06/23 02:33:00;;;;;;;2.63;2.08;;;32.20;45.20;;;;;;5044654;28;20041;-54
2022/06/23 02:35:32;;;;;;;1.65;1.40;;;32.20;45.10;;;;;;5033946;28;20143;-54
2022/06/23 02:38:04;;;;;;;1.80;1.00;;;32.10;45.20;;;;;;5039934;28;20501;-52
2022/06/23 02:40:36;;;;;;;1.02;0.80;;;32.10;45.30;;;;;;5037384;28;20509;-52
2022/06/23 02:43:13;;;;;;;3.60;0.80;;;32.10;45.40;;;;;;5032793;28;20690;-52
2022/06/23 02:46:09;;;;;;;2.13;0.55;;;31.90;45.60;;;;;;5036942;28;20037;-53
2022/06/23 02:49:01;;;;;;;1.42;0.35;;;31.70;45.80;;;;;;5043966;28;20494;-53
2022/06/23 02:51:46;;;;;;;2.75;0.50;;;31.50;46.10;;;;;;5040954;28;20132;-53
2022/06/23 02:54:41;;;;;;;1.03;0.53;;;31.30;46.40;;;;;;5046275;28;20060;-55
2022/06/23 02:57:30;;;;;;;2.13;0.50;;;31.10;46.50;;;;;;5032501;28;20097;-55
2022/06/23 03:00:02;;;;;;;2.67;0.40;;;30.90;47.00;;;;;;5034394;28;20044;-51
2022/06/23 03:02:36;;;;;;;1.52;0.30;;;30.70;47.00;;;;;;5031481;28;20045;-50
2022/06/23 03:05:13;;;;;;;4.47;0.75;;;30.60;47.10;;;;;;5039174;28;20076;-51
2022/06/23 03:07:46;;;;;;;3.10;0.30;;;30.40;46.90;;;;;;5032229;28;20140;-55
2022/06/23 03:10:20;;;;;;;9.43;0.17;;;30.20;47.30;;;;;;5040428;28;20048;-50
2022/06/23 03:12:53;;;;;;;5.00;0.30;;;29.90;47.20;;;;;;5042172;28;20087;-53
2022/06/23 03:15:26;;;;;;;6.85;1.23;;;29.70;47.70;;;;;;5032947;28;20103;-51
2022/06/23 03:17:58;;;;;;;4.28;0.32;;;29.40;47.90;;;;;;5033892;28;20045;-54
2022/06/23 03:20:37;;;;;;;2.92;0.20;;;29.20;48.20;;;;;;5032016;28;20045;-52
2022/06/23 03:23:13;;;;;;;1.48;0.10;;;29.00;48.60;;;;;;5039735;28;20056;-56
2022/06/23 03:25:45;;;;;;;2.97;0.10;;;28.90;49.10;;;;;;5032196;28;20042;-48
2022/06/23 03:28:19;;;;;;;0.73;0.65;;;28.70;49.60;;;;;;5032402;28;20125;-54
2022/06/23 03:30:49;;;;;;;2.00;0.52;;;28.50;49.50;;;;;;5031041;28;20926;-51
2022/06/23 03:33:22;;;;;;;1.45;0.20;;;28.40;49.80;;;;;;5035975;28;20053;-54
2022/06/23 03:35:54;;;;;;;3.05;0.10;;;28.30;50.80;;;;;;5034846;28;20037;-52
2022/06/23 03:44:00;;;;;;;1.35;0.20;;;28.00;50.70;;;;;;5040860;28;20041;-49
2022/06/23 03:46:33;;;;;;;1.75;0.10;;;27.90;51.10;;;;;;5034155;28;20041;-50
2022/06/23 03:49:08;;;;;;;5.25;0.38;;;27.90;51.10;;;;;;5037272;28;20110;-53
2022/06/23 03:51:39;;;;;;;3.58;0.40;;;27.80;51.00;;;;;;5029187;28;20510;-54
2022/06/23 03:54:12;;;;;;;2.22;0.63;;;27.70;51.10;;;;;;5030701;28;20134;-53
2022/06/23 03:56:46;;;;;;;2.80;0.10;;;27.70;51.40;;;;;;5040416;28;20544;-50
2022/06/23 03:59:16;;;;;;;4.03;0.20;;;27.60;51.10;;;;;;5034781;28;20553;-54
2022/06/23 04:01:49;;;;;;;2.80;0.20;;;27.60;51.50;;;;;;5030583;28;20041;-49
2022/06/23 04:04:21;;;;;;;4.82;0.20;;;27.50;51.60;;;;;;5031352;28;20057;-49
2022/06/23 04:06:49;;;;;;;3.22;0.55;;;27.40;51.70;;;;;;5031826;28;20136;-52
2022/06/23 04:09:20;;;;;;;4.50;0.30;;;27.40;51.60;;;;;;5029743;28;20060;-51
2022/06/23 04:12:01;;;;;;;5.22;0.30;;;27.30;52.00;;;;;;5040876;28;20056;-52
2022/06/23 04:14:43;;;;;;;4.75;0.15;;;27.20;52.10;;;;;;5035769;28;20486;-52
2022/06/23 04:17:16;;;;;;;3.60;0.20;;;27.10;52.10;;;;;;5031188;28;20128;-49
2022/06/23 04:19:48;;;;;;;6.18;0.30;;;26.90;52.40;;;;;;5036539;28;20065;-48
2022/06/23 04:22:21;;;;;;;10.23;0.22;;;26.90;52.50;;;;;;5031367;28;20134;-53
2022/06/23 04:24:52;;;;;;;3.42;0.45;;;26.80;52.70;;;;;;5032569;28;20129;-54
2022/06/23 04:27:25;;;;;;;3.42;0.38;;;26.80;52.80;;;;;;5029727;28;20688;-53
2022/06/23 04:29:56;;;;;;;2.20;0.20;;;26.70;53.00;;;;;;5042131;28;20779;-49
2022/06/23 04:32:25;;;;;;;4.43;0.38;;;26.70;53.00;;;;;;5038718;28;20049;-50
2022/06/23 04:34:58;;;;;;;4.85;0.35;;;26.60;53.10;;;;;;5032423;28;20045;-53
2022/06/23 04:37:40;;;;;;;13.98;1.20;;;26.60;53.20;;;;;;5034991;28;20074;-51
2022/06/23 04:40:19;;;;;;;8.98;0.22;;;26.50;53.50;;;;;;5026554;28;20152;-52
2022/06/23 04:42:53;;;;;;;2.08;0.20;;;26.40;53.90;;;;;;5028871;28;20056;-51
2022/06/23 04:45:33;;;;;;;5.75;0.10;;;26.40;54.10;;;;;;5033245;28;20048;-51
2022/06/23 04:48:03;;;;;;;1.50;0.63;;;26.40;54.20;;;;;;5036907;28;20045;-51
2022/06/23 04:50:47;;;;;;;2.28;0.50;;;26.30;54.10;;;;;;5042717;28;20580;-53
2022/06/23 04:53:32;;;;;;;1.75;0.30;;;26.30;54.10;;;;;;5046986;28;20516;-51
2022/06/23 04:56:09;;;;;;;7.43;0.15;;;26.30;54.20;;;;;;5031477;28;20135;-50
2022/06/23 04:58:50;;;;;;;2.63;0.17;;;26.30;54.30;;;;;;5034002;28;20125;-50
2022/06/23 05:01:22;;;;;;;5.38;0.73;;;26.20;54.30;;;;;;5026687;28;20766;-50
2022/06/23 05:03:53;;;;;;;3.63;0.65;;;26.20;54.30;;;;;;5029479;28;20058;-52
2022/06/23 05:06:39;;;;;;;7.80;0.30;;;26.20;54.40;;;;;;5032139;28;20103;-51
2022/06/23 05:09:15;;;;;;;7.20;0.20;;;26.20;54.40;;;;;;5030510;28;20045;-51
2022/06/23 05:11:48;;;;;;;9.27;0.20;;;26.10;54.80;;;;;;5045421;28;20094;-54
2022/06/23 05:14:21;;;;;;;3.50;0.47;;;26.10;54.90;;;;;;5036167;28;20048;-54
2022/06/23 05:16:52;;;;;;;8.13;0.25;;;26.10;55.00;;;;;;5030437;28;20088;-53
2022/06/23 05:19:26;;;;;;;4.22;0.47;;;26.10;55.20;;;;;;5028749;28;20049;-50
2022/06/23 05:21:58;;;;;;;13.32;0.47;;;26.10;55.60;;;;;;5031441;28;20042;-54
2022/06/23 05:24:29;;;;;;;8.43;0.80;;;26.10;55.10;;;;;;5026620;28;20056;-54
2022/06/23 05:26:59;;;;;;;8.65;0.17;;;26.10;54.80;;;;;;5031778;28;20099;-54
2022/06/23 05:29:33;;;;;;;5.40;0.20;;;26.10;54.80;;;;;;5033701;28;20041;-52
2022/06/23 05:32:05;;;;;;;7.97;0.40;;;26.10;54.80;;;;;;5037041;28;20091;-55
2022/06/23 05:34:38;;;;;;;3.95;0.98;;;26.00;54.50;;;;;;5038021;28;20045;-55
2022/06/23 05:37:14;;;;;;;1.52;0.17;;;26.00;54.40;;;;;;5034214;28;20144;-54
2022/06/23 05:39:48;;;;;;;8.35;0.20;;;26.00;54.50;;;;;;5028929;28;20088;-53
2022/06/23 05:42:19;;;;;;;3.80;0.95;;;25.90;54.40;;;;;;5032406;28;20087;-53
2022/06/23 05:44:50;;;;;;;9.52;0.38;;;25.90;54.30;;;;;;5038159;28;20041;-53
2022/06/23 05:47:19;;;;;;;3.35;0.95;;;25.90;54.10;;;;;;5037951;28;20132;-53
2022/06/23 05:49:52;;;;;;;3.00;0.25;;;25.90;54.00;;;;;;5035060;28;20132;-54
2022/06/23 05:52:25;;;;;;;5.50;0.50;;;25.90;53.50;;;;;;5035801;28;20840;-52
2022/06/23 05:55:00;;;;;;;4.57;0.35;;;25.80;53.40;;;;;;5044345;28;20474;-52
2022/06/23 05:57:34;;;;;;;2.67;0.65;;;25.80;53.40;;;;;;5034059;28;20041;-52
2022/06/23 06:00:07;;;;;;;3.60;0.40;;;25.70;53.50;;;;;;5048135;28;20136;-50
2022/06/23 06:02:43;;;;;;;3.22;0.43;;;25.70;53.50;;;;;;5059535;28;20044;-54
2022/06/23 06:05:21;;;;;;;4.15;0.93;;;25.70;53.50;;;;;;5037299;28;20584;-54
2022/06/23 06:07:51;;;;;;;14.38;0.63;;;25.70;53.50;;;;;;5033491;28;20071;-54
2022/06/23 06:10:23;;;;;;;5.75;0.30;;;25.70;53.60;;;;;;5034440;28;20124;-53
2022/06/23 06:12:52;;;;;;;1.63;0.40;;;25.70;53.50;;;;;;5046189;28;20065;-55
2022/06/23 06:15:23;;;;;;;7.85;0.68;;;25.60;53.30;;;;;;5036688;28;20136;-53
2022/06/23 06:17:54;;;;;;;4.70;0.90;;;25.60;53.20;;;;;;5035211;28;20604;-51
2022/06/23 06:20:26;;;;;;;1.45;0.30;;;25.60;53.20;;;;;;5031905;28;20041;-52
2022/06/23 06:23:01;;;;;;;6.65;0.98;;;25.60;53.40;;;;;;5038993;28;20072;-53
2022/06/23 06:25:31;;;;;;;5.68;0.40;;;25.60;53.40;;;;;;5038102;28;20038;-55
2022/06/23 06:28:16;;;;;;;3.15;0.40;;;25.60;53.40;;;;;;5033918;28;20421;-52
2022/06/23 06:30:50;;;;;;;8.95;1.05;;;25.60;53.30;;;;;;5029598;28;20068;-52
2022/06/23 06:33:29;;;;;;;3.70;0.20;;;25.60;53.20;;;;;;5037429;28;20045;-53
2022/06/23 06:35:57;;;;;;;8.05;1.05;;;25.60;53.80;;;;;;5036448;28;20048;-48
2022/06/23 06:38:28;;;;;;;1.70;0.60;;;25.60;53.30;;;;;;5041037;28;20140;-50
2022/06/23 06:40:58;;;;;;;2.80;0.63;;;25.60;53.20;;;;;;5036945;28;20041;-48
2022/06/23 06:43:29;;;;;;;5.35;0.20;;;25.60;53.10;;;;;;5036707;28;20051;-55
2022/06/23 06:45:58;;;;;;;6.43;0.40;;;25.70;53.10;;;;;;5033670;28;20524;-48
2022/06/23 06:48:30;;;;;;;11.15;0.63;;;25.70;53.00;;;;;;5042755;28;20041;-52
2022/06/23 06:51:01;;;;;;;4.45;1.38;;;25.70;52.80;;;;;;5040806;28;20053;-53
2022/06/23 06:53:35;;;;;;;1.58;0.45;;;25.60;52.70;;;;;;5040856;28;20037;-53
2022/06/23 06:56:08;;;;;;;3.17;0.60;;;25.70;52.60;;;;;;5037414;28;20091;-49
2022/06/23 06:58:41;;;;;;;5.15;0.60;;;25.60;52.40;;;;;;5040445;28;20087;-48
2022/06/23 07:01:14;;;;;;;4.93;0.85;;;25.60;52.80;;;;;;5042821;28;20063;-51
2022/06/23 07:03:45;;;;;;;3.65;0.95;;;25.60;53.10;;;;;;5046659;28;20041;-52
2022/06/23 07:06:17;;;;;;;5.05;1.65;;;25.60;53.10;;;;;;5042627;28;20052;-50
2022/06/23 07:08:51;;;;;;;5.05;0.90;;;25.60;53.80;;;;;;5044215;28;20045;-48
2022/06/23 07:11:22;;;;;;;5.00;0.50;;;25.60;53.10;;;;;;5043830;28;20049;-53
2022/06/23 07:13:56;;;;;;;4.10;0.32;;;25.60;53.10;;;;;;5040215;28;20075;-51
2022/06/23 07:16:28;;;;;;;3.97;0.60;;;25.60;52.80;;;;;;5039009;28;20032;-50
2022/06/23 07:19:01;;;;;;;3.60;0.52;;;25.60;53.00;;;;;;5037739;28;20045;-48
2022/06/23 07:21:35;;;;;;;2.53;0.47;;;25.60;53.10;;;;;;5042945;28;20041;-48
2022/06/23 07:24:12;;;;;;;2.70;0.77;;;25.60;52.60;;;;;;5061679;28;20041;-55
2022/06/23 07:26:45;;;;;;;9.00;0.95;;;25.60;52.40;;;;;;5043156;28;20585;-50
2022/06/23 07:29:31;;;;;;;5.57;0.80;;;25.60;52.30;;;;;;5041661;28;20041;-50
2022/06/23 07:32:07;;;;;;;4.10;0.20;;;25.60;52.30;;;;;;5043974;28;20048;-51
2022/06/23 07:34:44;;;;;;;7.60;0.35;;;25.60;52.50;;;;;;5035895;28;20107;-51
2022/06/23 07:37:19;;;;;;;2.33;0.40;;;25.60;52.30;;;;;;5037861;28;20478;-49
2022/06/23 07:39:53;;;;;;;6.10;0.60;;;25.60;52.30;;;;;;5040317;28;20052;-49
2022/06/23 07:42:36;;;;;;;2.67;0.25;;;25.60;52.10;;;;;;5047684;28;20040;-52
2022/06/23 07:45:10;;;;;;;6.18;0.50;;;25.60;52.00;;;;;;5051280;28;20069;-49
2022/06/23 07:47:37;;;;;;;4.78;0.60;;;25.60;52.10;;;;;;5044787;28;20128;-48
2022/06/23 07:50:05;;;;;;;4.53;0.38;;;25.60;52.00;;;;;;5042359;28;20554;-51
2022/06/23 07:52:32;;;;;;;2.22;0.30;;;25.70;51.90;;;;;;5038161;28;20469;-53
2022/06/23 07:55:02;;;;;;;3.83;0.30;;;25.70;51.50;;;;;;5040492;28;20124;-51
2022/06/23 07:57:33;;;;;;;2.60;0.43;;;25.70;51.50;;;;;;5039615;28;20047;-51
2022/06/23 08:00:05;;;;;;;2.28;0.20;;;25.60;51.50;;;;;;5043568;28;20102;-54
2022/06/23 08:02:44;;;;;;;6.90;0.35;;;25.70;51.70;;;;;;5059278;28;20045;-53
2022/06/23 08:05:16;;;;;;;3.33;0.30;;;25.70;52.00;;;;;;5043819;28;20128;-50
2022/06/23 08:07:45;;;;;;;3.95;0.57;;;25.70;52.00;;;;;;5038031;28;20049;-52
2022/06/23 08:10:18;;;;;;;3.42;0.35;;;25.70;51.90;;;;;;5041129;28;20033;-53
2022/06/23 08:12:53;;;;;;;4.78;0.30;;;25.80;51.90;;;;;;5041087;28;20041;-48
2022/06/23 08:18:18;;;;;;;5.55;0.77;;;25.80;51.60;;;;;;5043200;28;20041;-52
2022/06/23 08:20:52;;;;;;;4.47;0.32;;;25.80;51.80;;;;;;5043937;28;20099;-47
2022/06/23 08:23:43;;;;;;;1.25;0.68;;;25.80;51.80;;;;;;5041822;28;20052;-52
2022/06/23 08:26:15;;;;;;;3.22;0.20;;;25.80;51.70;;;;;;5042703;28;20079;-51
2022/06/23 08:28:45;;;;;;;6.95;0.20;;;25.90;51.70;;;;;;5040501;28;20672;-50
2022/06/23 08:31:12;;;;;;;3.00;0.57;;;25.90;51.50;;;;;;5040582;28;20037;-49
2022/06/23 08:33:39;;;;;;;1.45;0.30;;;25.90;51.40;;;;;;5039207;28;21181;-54
2022/06/23 08:36:11;;;;;;;2.45;0.20;;;25.90;51.50;;;;;;5043745;28;20056;-54
2022/06/23 08:38:44;;;;;;;8.23;0.50;;;26.00;51.40;;;;;;5042835;28;20523;-50
2022/06/23 08:41:23;;;;;;;1.20;0.20;;;26.00;51.30;;;;;;5040902;28;20296;-53
2022/06/23 08:43:56;;;;;;;3.42;0.47;;;26.00;51.80;;;;;;5041512;28;20522;-48
2022/06/23 08:46:29;;;;;;;2.63;0.50;;;26.00;51.20;;;;;;5037129;28;20037;-48
2022/06/23 08:49:04;;;;;;;3.20;0.45;;;26.00;50.90;;;;;;5040415;28;20052;-51
2022/06/23 08:51:42;;;;;;;2.83;0.43;;;26.10;50.90;;;;;;5038490;28;20665;-49
2022/06/23 08:54:18;;;;;;;4.32;0.93;;;26.10;50.90;;;;;;5057522;28;20043;-49
2022/06/23 08:56:55;;;;;;;1.85;0.20;;;26.00;50.80;;;;;;5041296;28;20076;-52
2022/06/23 08:59:30;;;;;;;1.05;0.38;;;26.10;50.80;;;;;;5040901;28;20037;-50
2022/06/23 09:02:01;;;;;;;;;;;26.10;50.70;;;;;;5036928;28;20045;-53
2022/06/23 09:04:39;;;;;;;1.25;0.30;;;26.00;50.60;;;;;;5043388;28;20040;-54
2022/06/23 09:07:23;;;;;;;2.58;1.00;;;26.10;50.90;;;;;;5040079;28;20461;-54
2022/06/23 09:09:54;;;;;;;0.88;0.22;;;26.10;50.80;;;;;;5057489;28;20076;-49
2022/06/23 09:12:30;;;;;;;5.35;0.60;;;26.10;50.60;;;;;;5043487;28;20091;-53
2022/06/23 09:15:35;;;;;;;6.38;1.13;;;26.10;50.50;;;;;;5045167;28;20568;-50
2022/06/23 09:18:38;;;;;;;2.20;0.20;;;26.20;50.50;;;;;;5039244;28;20615;-53
2022/06/23 09:21:23;;;;;;;3.33;0.20;;;26.20;50.20;;;;;;5041797;28;20080;-58
2022/06/23 09:24:16;;;;;;;0.55;0.17;;;26.30;50.10;;;;;;5042470;28;20106;-54
2022/06/23 09:26:54;;;;;;;0.22;0.20;;;26.50;50.10;;;;;;5046486;28;20485;-53
2022/06/23 09:29:33;;;;;;;2.53;0.22;;;26.80;49.70;;;;;;5038548;28;20052;-56
2022/06/23 09:32:06;;;;;;;1.75;0.20;;;27.30;48.90;;;;;;5041042;28;20053;-56
2022/06/23 09:34:53;;;;;;;0.60;0.20;;;27.70;48.10;;;;;;5037351;28;20096;-56
2022/06/23 09:38:01;;;;;;;1.63;0.30;;;28.30;47.20;;;;;;5045112;28;21720;-53
2022/06/23 09:40:41;;;;;;;5.45;0.43;;;28.80;46.20;;;;;;5033880;28;20048;-50
2022/06/23 09:43:34;;;;;;;0.93;0.10;;;29.20;45.60;;;;;;5037789;28;20073;-50
2022/06/23 09:46:21;;;;;;;6.18;0.30;;;29.60;44.70;;;;;;5040866;28;20041;-50
2022/06/23 09:49:13;;;;;;;4.75;0.52;;;30.10;43.80;;;;;;5041363;28;20049;-51
2022/06/23 09:52:10;;;;;;;0.82;0.10;;;30.60;43.00;;;;;;5038824;28;20084;-49
2022/06/23 09:55:13;;;;;;;2.63;0.47;;;30.90;42.10;;;;;;5032509;28;20045;-51
2022/06/23 09:58:04;;;;;;;1.02;0.25;;;31.30;41.60;;;;;;4978153;28;20781;-54
2022/06/23 10:00:42;;;;;;;0.80;0.10;;;31.70;40.70;;;;;;4980951;28;20042;-53
2022/06/23 10:03:26;;;;;;;0.82;0.75;;;32.00;39.70;;;;;;4976304;28;20058;-54
2022/06/23 10:06:17;;;;;;;0.73;0.20;;;32.10;39.40;;;;;;4986165;28;20629;-53
2022/06/23 10:08:55;;;;;;;2.38;0.22;;;32.20;39.20;;;;;;4975597;28;20047;-57
2022/06/23 10:11:40;;;;;;;0.40;0.20;;;32.30;39.10;;;;;;4979065;28;20545;-58
2022/06/23 10:14:18;;;;;;;1.50;0.30;;;32.50;39.00;;;;;;4962493;28;20554;-59
2022/06/23 10:17:01;;;;;;;0.57;0.13;;;32.70;38.50;;;;;;4977269;28;20065;-58
2022/06/23 10:19:59;;;;;;;6.25;1.63;;;32.80;37.90;;;;;;4976573;28;20050;-57
2022/06/23 10:22:44;;;;;;;0.63;0.30;;;33.10;37.70;;;;;;4975521;28;20047;-56
2022/06/23 10:25:37;;;;;;;7.05;1.23;;;33.30;37.70;;;;;;4980214;28;20050;-57
2022/06/23 10:28:23;;;;;;;13.02;5.75;;;33.50;37.40;;;;;;4975133;28;20066;-57
2022/06/23 10:30:58;;;;;;;11.68;3.92;;;33.70;37.00;;;;;;4973864;28;20097;-58
2022/06/23 10:34:01;;;;;;;7.47;2.67;;;33.80;37.50;;;;;;4983322;28;21064;-61
2022/06/23 10:36:56;;;;;;;6.30;2.25;;;34.00;36.70;;;;;;5019907;28;20049;-59
2022/06/23 10:39:53;;;;;;;6.05;1.15;;;34.10;36.70;;;;;;5043157;28;20068;-61
2022/06/23 10:42:36;;;;;;;2.90;0.63;;;34.30;36.50;;;;;;5037239;28;20072;-60
2022/06/23 10:45:25;;;;;;;1.38;0.60;;;34.50;35.60;;;;;;5042313;28;20040;-60
2022/06/23 10:48:11;;;;;;;1.85;0.90;;;34.40;35.20;;;;;;5040720;28;20592;-58
2022/06/23 10:50:48;;;;;;;1.10;0.43;;;34.40;35.50;;;;;;5044749;28;20040;-59
2022/06/23 10:53:31;;;;;;;1.95;0.60;;;34.50;35.30;;;;;;5035520;28;20045;-58
2022/06/23 10:56:57;;;;;;;1.50;0.32;;;34.70;34.80;;;;;;5038160;28;20051;-50
2022/06/23 10:59:53;;;;;;;1.40;0.47;;;34.70;34.20;;;;;;4975172;28;20146;-51
2022/06/23 11:02:52;;;;;;;2.53;0.20;;;34.60;34.40;;;;;;4974805;28;20057;-52
2022/06/23 11:05:30;;;;;;;5.47;0.20;;;34.30;34.10;;;;;;4975497;28;20071;-50
2022/06/23 11:08:16;;;;;;;0.45;0.20;;;34.10;34.60;;;;;;4974661;28;20058;-51
2022/06/23 11:11:00;;;;;;;0.95;0.20;;;33.90;34.40;;;;;;4968869;28;20074;-53
2022/06/23 11:13:36;;;;;;;4.22;0.20;;;33.60;35.00;;;;;;4969859;28;20280;-51
2022/06/23 11:16:10;;;;;;;1.48;0.35;;;33.40;35.30;;;;;;4975744;28;20054;-50
2022/06/23 11:19:03;;;;;;;5.95;0.30;;;33.20;35.10;;;;;;4973744;28;20082;-50
2022/06/23 11:21:55;;;;;;;0.55;0.20;;;33.10;35.20;;;;;;4975561;28;20427;-49
2022/06/23 11:24:33;;;;;;;2.28;0.47;;;32.90;35.30;;;;;;4969769;28;20634;-49
2022/06/23 11:27:10;;;;;;;0.90;0.20;;;32.70;34.80;;;;;;4971630;28;20058;-53
2022/06/23 11:29:57;;;;;;;1.02;0.20;;;32.50;35.70;;;;;;4993009;28;20045;-49
2022/06/23 11:32:39;;;;;;;1.65;0.10;;;32.30;36.00;;;;;;5037524;28;20053;-48
2022/06/23 11:35:41;;;;;;;3.83;0.40;;;32.20;36.60;;;;;;5037870;28;20156;-53
2022/06/23 11:38:33;;;;;;;2.42;0.40;;;32.20;36.40;;;;;;5031390;28;20632;-53
2022/06/23 11:41:14;;;;;;;1.58;0.40;;;32.10;36.70;;;;;;5037911;28;20049;-50
2022/06/23 11:43:59;;;;;;;0.77;0.30;;;32.10;37.20;;;;;;5035990;28;20042;-50
2022/06/23 11:46:33;;;;;;;1.30;0.20;;;32.00;37.00;;;;;;5039477;28;20099;-49
2022/06/23 11:49:24;;;;;;;0.20;0.10;;;32.00;36.60;;;;;;5041989;28;20292;-50
2022/06/23 11:52:25;;;;;;;0.95;0.20;;;32.00;37.20;;;;;;5037983;28;20543;-51
2022/06/23 11:55:16;;;;;;;0.90;0.20;;;32.10;36.40;;;;;;5030307;28;20144;-50
2022/06/23 11:58:07;;;;;;;1.75;0.28;;;32.00;36.80;;;;;;5039556;28;20097;-49
2022/06/23 12:00:48;;;;;;;0.32;0.20;;;32.10;36.90;;;;;;5031313;28;20059;-49
2022/06/23 12:03:40;;;;;;;2.35;0.10;;;32.10;36.40;;;;;;5038289;28;20176;-52
2022/06/23 12:06:17;;;;;;;0.22;0.20;;;32.10;36.70;;;;;;5040591;28;20041;-53
2022/06/23 12:08:58;;;;;;;0.40;0.20;;;32.20;36.50;;;;;;5038303;28;20048;-55
2022/06/23 12:11:28;;;;;;;1.75;0.10;;;32.20;36.40;;;;;;5036611;28;20072;-52
2022/06/23 12:13:59;;;;;;;1.75;0.30;;;32.20;36.50;;;;;;5039122;28;20069;-52
2022/06/23 12:16:28;;;;;;;1.35;0.20;;;32.40;36.40;;;;;;5036593;28;20494;-50
2022/06/23 12:19:01;;;;;;;6.72;0.30;;;32.40;36.10;;;;;;5039509;28;20056;-51
2022/06/23 12:21:35;;;;;;;0.20;0.20;;;32.40;35.90;;;;;;5037389;28;20116;-53
2022/06/23 12:24:14;;;;;;;4.00;0.65;;;32.50;36.00;;;;;;5042265;28;20076;-49
2022/06/23 12:26:47;;;;;;;0.68;0.20;;;32.50;35.70;;;;;;5036919;28;20040;-51
2022/06/23 12:29:21;;;;;;;2.53;0.20;;;32.60;34.90;;;;;;5038796;28;20045;-50
2022/06/23 12:31:57;;;;;;;2.45;0.52;;;32.70;35.10;;;;;;5037573;28;20089;-53
2022/06/23 12:34:32;;;;;;;1.48;0.20;;;32.70;35.20;;;;;;5033341;28;20156;-51
2022/06/23 12:37:14;;;;;;;1.60;0.25;;;32.80;35.30;;;;;;5035839;28;20116;-51
2022/06/23 12:39:51;;;;;;;2.83;0.10;;;32.70;35.10;;;;;;5038686;28;20087;-52
2022/06/23 12:42:24;;;;;;;0.52;0.15;;;32.70;35.40;;;;;;5038472;28;20041;-52
2022/06/23 12:45:26;;;;;;;0.28;0.20;;;32.70;35.60;;;;;;5039142;28;20136;-49
2022/06/23 12:48:11;;;;;;;0.20;0.10;;;32.80;35.40;;;;;;5038283;28;20053;-51
2022/06/23 12:50:50;;;;;;;0.43;0.20;;;32.70;34.90;;;;;;5039663;28;20140;-54
2022/06/23 12:53:39;;;;;;;2.10;0.40;;;32.70;35.00;;;;;;5033537;28;20057;-50
2022/06/23 12:56:29;;;;;;;0.57;0.52;;;32.70;35.10;;;;;;5041001;28;20799;-51
2022/06/23 12:59:03;;;;;;;1.13;0.10;;;32.70;35.30;;;;;;5035874;28;20098;-50
2022/06/23 13:01:37;;;;;;;1.75;0.30;;;32.70;35.30;;;;;;5040514;28;20427;-52
2022/06/23 13:04:12;;;;;;;0.40;0.30;;;32.80;35.40;;;;;;5031941;28;20720;-55
2022/06/23 13:06:48;;;;;;;3.88;0.20;;;32.90;35.10;;;;;;5035226;28;20032;-55
2022/06/23 13:09:27;;;;;;;0.50;0.30;;;33.00;35.30;;;;;;5038894;28;20041;-53
2022/06/23 13:12:03;;;;;;;0.75;0.10;;;33.10;35.20;;;;;;5032693;28;20037;-53
2022/06/23 13:14:36;;;;;;;0.40;0.10;;;33.10;35.20;;;;;;5041939;28;20041;-52
2022/06/23 13:17:21;;;;;;;0.88;0.20;;;33.20;35.10;;;;;;5038197;28;20516;-54
2022/06/23 13:19:57;;;;;;;1.30;0.88;;;33.20;34.90;;;;;;5033846;28;20071;-49
2022/06/23 13:22:25;;;;;;;2.65;0.20;;;33.10;34.80;;;;;;5033512;28;20069;-51
2022/06/23 13:24:56;;;;;;;0.40;0.40;;;33.10;34.90;;;;;;5036190;28;20107;-51
2022/06/23 13:27:27;;;;;;;0.65;0.20;;;33.10;34.90;;;;;;5035627;28;20037;-52
2022/06/23 13:30:00;;;;;;;1.85;0.20;;;33.10;34.80;;;;;;5039234;28;20459;-54
2022/06/23 13:32:36;;;;;;;0.30;0.30;;;33.20;34.70;;;;;;5038037;28;20485;-53
2022/06/23 13:35:15;;;;;;;3.30;0.20;;;33.10;34.60;;;;;;5033657;28;20056;-50
2022/06/23 13:37:49;;;;;;;3.33;0.17;;;33.10;34.80;;;;;;5035452;28;20092;-48
2022/06/23 13:40:26;;;;;;;2.65;0.40;;;33.30;35.00;;;;;;5034974;28;20088;-49
2022/06/23 13:43:05;;;;;;;0.28;0.10;;;33.40;34.60;;;;;;5034999;28;20122;-49
2022/06/23 13:45:38;;;;;;;3.67;0.22;;;33.40;34.00;;;;;;5034335;28;20071;-51
2022/06/23 13:48:16;;;;;;;0.52;0.52;;;33.40;34.10;;;;;;5040143;28;20049;-51
2022/06/23 13:50:52;;;;;;;1.92;0.20;;;33.40;34.80;;;;;;5038133;28;20064;-49